sensor_id;sensor_type;location;lat;lon;timestamp;pressure;altitude;pressure_sealevel;temperature
44429;BMP180;30134;47.866;-4.222;2024-01-07T00:00:08;101852.00;;;20.00
44429;BMP180;30134;47.866;-4.222;2024-01-07T00:02:34;101860.00;;;20.00
44429;BMP180;30134;47.866;-4.222;2024-01-07T00:05:00;101856.00;;;19.90
44429;BMP180;30134;47.866;-4.222;2024-01-07T00:07:27;101860.00;;;20.00
44429;BMP180;30134;47.866;-4.222;2024-01-07T00:09:53;101862.00;;;20.00
44429;BMP180;30134;47.866;-4.222;2024-01-07T00:12:19;101862.00;;;20.00
44429;BMP180;30134;47.866;-4.222;2024-01-07T00:14:45;101865.00;;;20.00
44429;BMP180;30134;47.866;-4.222;2024-01-07T00:17:12;101872.00;;;20.00
44429;BMP180;30134;47.866;-4.222;2024-01-07T00:19:38;101877.00;;;20.10
44429;BMP180;30134;47.866;-4.222;2024-01-07T00:22:05;101875.00;;;20.00
44429;BMP180;30134;47.866;-4.222;2024-01-07T00:24:31;101880.00;;;20.00
44429;BMP180;30134;47.866;-4.222;2024-01-07T00:26:57;101875.00;;;20.00
44429;BMP180;30134;47.866;-4.222;2024-01-07T00:29:23;101877.00;;;20.00
44429;BMP180;30134;47.866;-4.222;2024-01-07T00:31:49;101877.00;;;19.90
44429;BMP180;30134;47.866;-4.222;2024-01-07T00:34:15;101876.00;;;20.00
44429;BMP180;30134;47.866;-4.222;2024-01-07T00:36:42;101877.00;;;20.00
44429;BMP180;30134;47.866;-4.222;2024-01-07T00:39:08;101869.00;;;19.90
44429;BMP180;30134;47.866;-4.222;2024-01-07T00:41:34;101877.00;;;20.00
44429;BMP180;30134;47.866;-4.222;2024-01-07T00:44:00;101874.00;;;20.00
44429;BMP180;30134;47.866;-4.222;2024-01-07T00:46:26;101876.00;;;20.00
44429;BMP180;30134;47.866;-4.222;2024-01-07T00:48:52;101876.00;;;20.00
44429;BMP180;30134;47.866;-4.222;2024-01-07T00:51:18;101878.00;;;20.00
44429;BMP180;30134;47.866;-4.222;2024-01-07T00:53:44;101889.00;;;20.00
44429;BMP180;30134;47.866;-4.222;2024-01-07T00:56:10;101887.00;;;20.00
44429;BMP180;30134;47.866;-4.222;2024-01-07T00:58:36;101886.00;;;20.20
44429;BMP180;30134;47.866;-4.222;2024-01-07T01:01:03;101881.00;;;20.10
44429;BMP180;30134;47.866;-4.222;2024-01-07T01:03:29;101871.00;;;20.00
44429;BMP180;30134;47.866;-4.222;2024-01-07T01:05:55;101879.00;;;20.00
44429;BMP180;30134;47.866;-4.222;2024-01-07T01:08:21;101876.00;;;20.00
44429;BMP180;30134;47.866;-4.222;2024-01-07T01:10:49;101880.00;;;20.00
44429;BMP180;30134;47.866;-4.222;2024-01-07T01:13:15;101871.00;;;20.00
44429;BMP180;30134;47.866;-4.222;2024-01-07T01:15:41;101865.00;;;20.00
44429;BMP180;30134;47.866;-4.222;2024-01-07T01:18:07;101876.00;;;20.00
44429;BMP180;30134;47.866;-4.222;2024-01-07T01:20:33;101870.00;;;20.00
44429;BMP180;30134;47.866;-4.222;2024-01-07T01:22:59;101877.00;;;20.00
44429;BMP180;30134;47.866;-4.222;2024-01-07T01:25:25;101869.00;;;20.00
44429;BMP180;30134;47.866;-4.222;2024-01-07T01:27:52;101875.00;;;19.90
44429;BMP180;30134;47.866;-4.222;2024-01-07T01:30:18;101878.00;;;19.90
44429;BMP180;30134;47.866;-4.222;2024-01-07T01:32:44;101884.00;;;19.90
44429;BMP180;30134;47.866;-4.222;2024-01-07T01:35:10;101878.00;;;19.90
44429;BMP180;30134;47.866;-4.222;2024-01-07T01:37:37;101876.00;;;19.90
44429;BMP180;30134;47.866;-4.222;2024-01-07T01:40:04;101893.00;;;20.00
44429;BMP180;30134;47.866;-4.222;2024-01-07T01:42:30;101886.00;;;19.90
44429;BMP180;30134;47.866;-4.222;2024-01-07T01:44:56;101891.00;;;19.90
44429;BMP180;30134;47.866;-4.222;2024-01-07T01:47:25;101891.00;;;19.90
44429;BMP180;30134;47.866;-4.222;2024-01-07T01:49:52;101895.00;;;20.00
44429;BMP180;30134;47.866;-4.222;2024-01-07T01:52:18;101889.00;;;20.00
44429;BMP180;30134;47.866;-4.222;2024-01-07T01:54:45;101898.00;;;19.90
44429;BMP180;30134;47.866;-4.222;2024-01-07T01:57:16;101891.00;;;19.90
44429;BMP180;30134;47.866;-4.222;2024-01-07T01:59:45;101895.00;;;19.90
44429;BMP180;30134;47.866;-4.222;2024-01-07T02:02:11;101897.00;;;19.90
44429;BMP180;30134;47.866;-4.222;2024-01-07T02:04:38;101903.00;;;19.90
44429;BMP180;30134;47.866;-4.222;2024-01-07T02:07:05;101896.00;;;19.90
44429;BMP180;30134;47.866;-4.222;2024-01-07T02:09:31;101894.00;;;19.90
44429;BMP180;30134;47.866;-4.222;2024-01-07T02:12:04;101903.00;;;19.90
44429;BMP180;30134;47.866;-4.222;2024-01-07T02:14:30;101900.00;;;19.90
44429;BMP180;30134;47.866;-4.222;2024-01-07T02:16:57;101905.00;;;19.90
44429;BMP180;30134;47.866;-4.222;2024-01-07T02:19:23;101917.00;;;19.90
44429;BMP180;30134;47.866;-4.222;2024-01-07T02:21:52;101915.00;;;19.90
44429;BMP180;30134;47.866;-4.222;2024-01-07T02:24:19;101917.00;;;20.00
44429;BMP180;30134;47.866;-4.222;2024-01-07T02:26:45;101918.00;;;19.90
44429;BMP180;30134;47.866;-4.222;2024-01-07T02:29:11;101915.00;;;20.10
44429;BMP180;30134;47.866;-4.222;2024-01-07T02:31:37;101920.00;;;20.00
44429;BMP180;30134;47.866;-4.222;2024-01-07T02:34:03;101918.00;;;19.90
44429;BMP180;30134;47.866;-4.222;2024-01-07T02:36:29;101915.00;;;20.00
44429;BMP180;30134;47.866;-4.222;2024-01-07T02:38:55;101912.00;;;19.90
44429;BMP180;30134;47.866;-4.222;2024-01-07T02:41:21;101910.00;;;19.90
44429;BMP180;30134;47.866;-4.222;2024-01-07T02:43:51;101910.00;;;19.90
44429;BMP180;30134;47.866;-4.222;2024-01-07T02:46:17;101912.00;;;19.90
44429;BMP180;30134;47.866;-4.222;2024-01-07T02:48:43;101905.00;;;19.90
44429;BMP180;30134;47.866;-4.222;2024-01-07T02:51:09;101907.00;;;19.90
44429;BMP180;30134;47.866;-4.222;2024-01-07T02:53:35;101906.00;;;19.90
44429;BMP180;30134;47.866;-4.222;2024-01-07T02:56:01;101912.00;;;19.90
44429;BMP180;30134;47.866;-4.222;2024-01-07T02:58:27;101923.00;;;19.80
44429;BMP180;30134;47.866;-4.222;2024-01-07T03:00:53;101923.00;;;19.90
44429;BMP180;30134;47.866;-4.222;2024-01-07T03:03:19;101919.00;;;19.90
44429;BMP180;30134;47.866;-4.222;2024-01-07T03:05:45;101920.00;;;19.90
44429;BMP180;30134;47.866;-4.222;2024-01-07T03:08:11;101915.00;;;19.90
44429;BMP180;30134;47.866;-4.222;2024-01-07T03:10:37;101916.00;;;19.90
44429;BMP180;30134;47.866;-4.222;2024-01-07T03:13:04;101907.00;;;19.90
44429;BMP180;30134;47.866;-4.222;2024-01-07T03:15:30;101909.00;;;19.80
44429;BMP180;30134;47.866;-4.222;2024-01-07T03:17:57;101909.00;;;19.90
44429;BMP180;30134;47.866;-4.222;2024-01-07T03:20:23;101914.00;;;19.90
44429;BMP180;30134;47.866;-4.222;2024-01-07T03:22:49;101917.00;;;19.90
44429;BMP180;30134;47.866;-4.222;2024-01-07T03:25:15;101914.00;;;19.80
44429;BMP180;30134;47.866;-4.222;2024-01-07T03:27:42;101917.00;;;19.80
44429;BMP180;30134;47.866;-4.222;2024-01-07T03:30:08;101912.00;;;19.80
44429;BMP180;30134;47.866;-4.222;2024-01-07T03:32:35;101915.00;;;19.80
44429;BMP180;30134;47.866;-4.222;2024-01-07T03:35:02;101916.00;;;19.90
44429;BMP180;30134;47.866;-4.222;2024-01-07T03:37:28;101915.00;;;19.80
44429;BMP180;30134;47.866;-4.222;2024-01-07T03:39:54;101925.00;;;19.90
44429;BMP180;30134;47.866;-4.222;2024-01-07T03:42:20;101923.00;;;19.80
44429;BMP180;30134;47.866;-4.222;2024-01-07T03:44:46;101931.00;;;19.80
44429;BMP180;30134;47.866;-4.222;2024-01-07T03:47:12;101928.00;;;19.90
44429;BMP180;30134;47.866;-4.222;2024-01-07T03:49:38;101928.00;;;19.90
44429;BMP180;30134;47.866;-4.222;2024-01-07T03:52:06;101931.00;;;19.90
44429;BMP180;30134;47.866;-4.222;2024-01-07T03:54:32;101931.00;;;19.80
44429;BMP180;30134;47.866;-4.222;2024-01-07T03:56:58;101930.00;;;19.80
44429;BMP180;30134;47.866;-4.222;2024-01-07T03:59:24;101931.00;;;19.80
44429;BMP180;30134;47.866;-4.222;2024-01-07T04:01:56;101937.00;;;19.90
44429;BMP180;30134;47.866;-4.222;2024-01-07T04:04:23;101940.00;;;19.80
44429;BMP180;30134;47.866;-4.222;2024-01-07T04:06:49;101942.00;;;19.80
44429;BMP180;30134;47.866;-4.222;2024-01-07T04:09:15;101941.00;;;19.80
44429;BMP180;30134;47.866;-4.222;2024-01-07T04:11:42;101945.00;;;19.80
44429;BMP180;30134;47.866;-4.222;2024-01-07T04:14:08;101942.00;;;19.80
44429;BMP180;30134;47.866;-4.222;2024-01-07T04:16:35;101940.00;;;19.80
44429;BMP180;30134;47.866;-4.222;2024-01-07T04:19:01;101944.00;;;19.80
44429;BMP180;30134;47.866;-4.222;2024-01-07T04:21:27;101937.00;;;19.80
44429;BMP180;30134;47.866;-4.222;2024-01-07T04:23:53;101943.00;;;19.80
44429;BMP180;30134;47.866;-4.222;2024-01-07T04:26:19;101938.00;;;19.80
44429;BMP180;30134;47.866;-4.222;2024-01-07T04:28:46;101929.00;;;19.80
44429;BMP180;30134;47.866;-4.222;2024-01-07T04:31:12;101939.00;;;19.80
44429;BMP180;30134;47.866;-4.222;2024-01-07T04:33:38;101934.00;;;19.80
44429;BMP180;30134;47.866;-4.222;2024-01-07T04:36:04;101931.00;;;19.80
44429;BMP180;30134;47.866;-4.222;2024-01-07T04:38:30;101933.00;;;19.70
44429;BMP180;30134;47.866;-4.222;2024-01-07T04:40:56;101933.00;;;19.70
44429;BMP180;30134;47.866;-4.222;2024-01-07T04:43:22;101935.00;;;19.80
44429;BMP180;30134;47.866;-4.222;2024-01-07T04:45:51;101938.00;;;19.80
44429;BMP180;30134;47.866;-4.222;2024-01-07T04:48:17;101934.00;;;19.80
44429;BMP180;30134;47.866;-4.222;2024-01-07T04:50:49;101936.00;;;19.80
44429;BMP180;30134;47.866;-4.222;2024-01-07T04:53:16;101943.00;;;19.80
44429;BMP180;30134;47.866;-4.222;2024-01-07T04:55:42;101938.00;;;19.80
44429;BMP180;30134;47.866;-4.222;2024-01-07T04:58:08;101945.00;;;19.70
44429;BMP180;30134;47.866;-4.222;2024-01-07T05:00:33;101946.00;;;19.80
44429;BMP180;30134;47.866;-4.222;2024-01-07T05:02:59;101945.00;;;19.80
44429;BMP180;30134;47.866;-4.222;2024-01-07T05:05:25;101948.00;;;19.80
44429;BMP180;30134;47.866;-4.222;2024-01-07T05:07:51;101950.00;;;19.80
44429;BMP180;30134;47.866;-4.222;2024-01-07T05:10:17;101951.00;;;19.80
44429;BMP180;30134;47.866;-4.222;2024-01-07T05:12:43;101943.00;;;19.70
44429;BMP180;30134;47.866;-4.222;2024-01-07T05:15:09;101946.00;;;19.80
44429;BMP180;30134;47.866;-4.222;2024-01-07T05:17:35;101943.00;;;19.80
44429;BMP180;30134;47.866;-4.222;2024-01-07T05:20:01;101950.00;;;19.80
44429;BMP180;30134;47.866;-4.222;2024-01-07T05:22:27;101954.00;;;19.80
44429;BMP180;30134;47.866;-4.222;2024-01-07T05:24:53;101952.00;;;19.80
44429;BMP180;30134;47.866;-4.222;2024-01-07T05:27:24;101962.00;;;19.80
44429;BMP180;30134;47.866;-4.222;2024-01-07T05:29:50;101967.00;;;19.70
44429;BMP180;30134;47.866;-4.222;2024-01-07T05:32:16;101957.00;;;19.70
44429;BMP180;30134;47.866;-4.222;2024-01-07T05:34:42;101961.00;;;19.70
44429;BMP180;30134;47.866;-4.222;2024-01-07T05:37:08;101956.00;;;19.70
44429;BMP180;30134;47.866;-4.222;2024-01-07T05:39:34;101965.00;;;19.80
44429;BMP180;30134;47.866;-4.222;2024-01-07T05:42:00;101962.00;;;19.70
44429;BMP180;30134;47.866;-4.222;2024-01-07T05:44:26;101963.00;;;19.70
44429;BMP180;30134;47.866;-4.222;2024-01-07T05:46:52;101963.00;;;19.70
44429;BMP180;30134;47.866;-4.222;2024-01-07T05:49:21;101963.00;;;19.70
44429;BMP180;30134;47.866;-4.222;2024-01-07T05:51:47;101968.00;;;19.70
44429;BMP180;30134;47.866;-4.222;2024-01-07T05:54:12;101973.00;;;19.70
44429;BMP180;30134;47.866;-4.222;2024-01-07T05:56:39;101973.00;;;19.70
44429;BMP180;30134;47.866;-4.222;2024-01-07T05:59:06;101972.00;;;19.70
44429;BMP180;30134;47.866;-4.222;2024-01-07T06:01:33;101976.00;;;19.70
44429;BMP180;30134;47.866;-4.222;2024-01-07T06:03:59;101973.00;;;19.70
44429;BMP180;30134;47.866;-4.222;2024-01-07T06:06:25;101979.00;;;19.70
44429;BMP180;30134;47.866;-4.222;2024-01-07T06:08:51;101978.00;;;19.70
44429;BMP180;30134;47.866;-4.222;2024-01-07T06:11:17;101979.00;;;19.70
44429;BMP180;30134;47.866;-4.222;2024-01-07T06:13:46;101969.00;;;19.60
44429;BMP180;30134;47.866;-4.222;2024-01-07T06:16:12;101975.00;;;19.70
44429;BMP180;30134;47.866;-4.222;2024-01-07T06:18:38;101974.00;;;19.70
44429;BMP180;30134;47.866;-4.222;2024-01-07T06:21:05;101983.00;;;19.60
44429;BMP180;30134;47.866;-4.222;2024-01-07T06:23:33;101980.00;;;19.70
44429;BMP180;30134;47.866;-4.222;2024-01-07T06:25:59;101984.00;;;19.60
44429;BMP180;30134;47.866;-4.222;2024-01-07T06:28:25;101981.00;;;19.60
44429;BMP180;30134;47.866;-4.222;2024-01-07T06:30:51;101985.00;;;19.60
44429;BMP180;30134;47.866;-4.222;2024-01-07T06:33:17;101990.00;;;19.70
44429;BMP180;30134;47.866;-4.222;2024-01-07T06:35:43;101989.00;;;19.60
44429;BMP180;30134;47.866;-4.222;2024-01-07T06:38:09;101986.00;;;19.70
44429;BMP180;30134;47.866;-4.222;2024-01-07T06:40:35;101995.00;;;19.70
44429;BMP180;30134;47.866;-4.222;2024-01-07T06:43:01;101999.00;;;19.70
44429;BMP180;30134;47.866;-4.222;2024-01-07T06:45:27;101995.00;;;19.60
44429;BMP180;30134;47.866;-4.222;2024-01-07T06:47:53;101997.00;;;19.60
44429;BMP180;30134;47.866;-4.222;2024-01-07T06:50:19;102006.00;;;19.60
44429;BMP180;30134;47.866;-4.222;2024-01-07T06:52:46;101991.00;;;19.60
44429;BMP180;30134;47.866;-4.222;2024-01-07T06:55:12;101998.00;;;19.60
44429;BMP180;30134;47.866;-4.222;2024-01-07T06:57:38;102001.00;;;19.60
44429;BMP180;30134;47.866;-4.222;2024-01-07T07:00:05;102004.00;;;19.60
44429;BMP180;30134;47.866;-4.222;2024-01-07T07:02:31;102006.00;;;19.60
44429;BMP180;30134;47.866;-4.222;2024-01-07T07:04:57;102011.00;;;19.60
44429;BMP180;30134;47.866;-4.222;2024-01-07T07:07:23;102015.00;;;19.60
44429;BMP180;30134;47.866;-4.222;2024-01-07T07:09:49;102014.00;;;19.60
44429;BMP180;30134;47.866;-4.222;2024-01-07T07:12:16;102017.00;;;19.60
44429;BMP180;30134;47.866;-4.222;2024-01-07T07:14:42;102024.00;;;19.60
44429;BMP180;30134;47.866;-4.222;2024-01-07T07:17:08;102024.00;;;19.60
44429;BMP180;30134;47.866;-4.222;2024-01-07T07:19:34;102021.00;;;19.60
44429;BMP180;30134;47.866;-4.222;2024-01-07T07:22:00;102023.00;;;19.50
44429;BMP180;30134;47.866;-4.222;2024-01-07T07:24:26;102029.00;;;19.60
44429;BMP180;30134;47.866;-4.222;2024-01-07T07:26:51;102041.00;;;19.60
44429;BMP180;30134;47.866;-4.222;2024-01-07T07:29:17;102043.00;;;19.50
44429;BMP180;30134;47.866;-4.222;2024-01-07T07:31:43;102046.00;;;19.50
44429;BMP180;30134;47.866;-4.222;2024-01-07T07:34:10;102051.00;;;19.60
44429;BMP180;30134;47.866;-4.222;2024-01-07T07:36:36;102056.00;;;19.60
44429;BMP180;30134;47.866;-4.222;2024-01-07T07:39:02;102055.00;;;19.60
44429;BMP180;30134;47.866;-4.222;2024-01-07T07:41:28;102062.00;;;19.60
44429;BMP180;30134;47.866;-4.222;2024-01-07T07:43:54;102068.00;;;19.60
44429;BMP180;30134;47.866;-4.222;2024-01-07T07:46:20;102070.00;;;19.50
44429;BMP180;30134;47.866;-4.222;2024-01-07T07:48:46;102069.00;;;19.60
44429;BMP180;30134;47.866;-4.222;2024-01-07T07:51:12;102077.00;;;19.60
44429;BMP180;30134;47.866;-4.222;2024-01-07T07:53:39;102080.00;;;19.60
44429;BMP180;30134;47.866;-4.222;2024-01-07T07:56:08;102091.00;;;19.50
44429;BMP180;30134;47.866;-4.222;2024-01-07T07:58:34;102080.00;;;19.50
44429;BMP180;30134;47.866;-4.222;2024-01-07T08:01:00;102087.00;;;19.50
44429;BMP180;30134;47.866;-4.222;2024-01-07T08:03:26;102088.00;;;19.50
44429;BMP180;30134;47.866;-4.222;2024-01-07T08:05:52;102083.00;;;19.50
44429;BMP180;30134;47.866;-4.222;2024-01-07T08:08:18;102079.00;;;19.50
44429;BMP180;30134;47.866;-4.222;2024-01-07T08:10:44;102093.00;;;19.50
44429;BMP180;30134;47.866;-4.222;2024-01-07T08:13:10;102093.00;;;19.50
44429;BMP180;30134;47.866;-4.222;2024-01-07T08:15:36;102091.00;;;19.50
44429;BMP180;30134;47.866;-4.222;2024-01-07T08:18:05;102095.00;;;19.50
44429;BMP180;30134;47.866;-4.222;2024-01-07T08:20:31;102108.00;;;19.50
44429;BMP180;30134;47.866;-4.222;2024-01-07T08:22:57;102103.00;;;19.60
44429;BMP180;30134;47.866;-4.222;2024-01-07T08:25:23;102111.00;;;19.50
44429;BMP180;30134;47.866;-4.222;2024-01-07T08:27:49;102107.00;;;19.50
44429;BMP180;30134;47.866;-4.222;2024-01-07T08:30:16;102109.00;;;19.50
44429;BMP180;30134;47.866;-4.222;2024-01-07T08:32:42;102115.00;;;19.50
44429;BMP180;30134;47.866;-4.222;2024-01-07T08:35:08;102114.00;;;19.50
44429;BMP180;30134;47.866;-4.222;2024-01-07T08:37:35;102129.00;;;19.50
44429;BMP180;30134;47.866;-4.222;2024-01-07T08:40:01;102132.00;;;19.50
44429;BMP180;30134;47.866;-4.222;2024-01-07T08:42:27;102134.00;;;19.50
44429;BMP180;30134;47.866;-4.222;2024-01-07T08:44:56;102132.00;;;19.50
44429;BMP180;30134;47.866;-4.222;2024-01-07T08:47:22;102130.00;;;19.50
44429;BMP180;30134;47.866;-4.222;2024-01-07T08:49:48;102132.00;;;19.50
44429;BMP180;30134;47.866;-4.222;2024-01-07T08:52:14;102125.00;;;19.50
44429;BMP180;30134;47.866;-4.222;2024-01-07T08:54:40;102131.00;;;19.50
44429;BMP180;30134;47.866;-4.222;2024-01-07T08:57:06;102133.00;;;19.50
44429;BMP180;30134;47.866;-4.222;2024-01-07T08:59:32;102136.00;;;19.50
44429;BMP180;30134;47.866;-4.222;2024-01-07T09:01:58;102140.00;;;19.40
44429;BMP180;30134;47.866;-4.222;2024-01-07T09:04:24;102141.00;;;19.40
44429;BMP180;30134;47.866;-4.222;2024-01-07T09:06:50;102132.00;;;19.40
44429;BMP180;30134;47.866;-4.222;2024-01-07T09:09:16;102131.00;;;19.40
44429;BMP180;30134;47.866;-4.222;2024-01-07T09:11:42;102131.00;;;19.40
44429;BMP180;30134;47.866;-4.222;2024-01-07T09:14:08;102132.00;;;19.40
44429;BMP180;30134;47.866;-4.222;2024-01-07T09:16:37;102138.00;;;19.40
44429;BMP180;30134;47.866;-4.222;2024-01-07T09:19:03;102138.00;;;19.40
44429;BMP180;30134;47.866;-4.222;2024-01-07T09:21:29;102140.00;;;19.30
44429;BMP180;30134;47.866;-4.222;2024-01-07T09:23:55;102145.00;;;19.40
44429;BMP180;30134;47.866;-4.222;2024-01-07T09:26:21;102145.00;;;19.40
44429;BMP180;30134;47.866;-4.222;2024-01-07T09:28:47;102150.00;;;19.40
44429;BMP180;30134;47.866;-4.222;2024-01-07T09:31:13;102148.00;;;19.40
44429;BMP180;30134;47.866;-4.222;2024-01-07T09:33:39;102152.00;;;19.40
44429;BMP180;30134;47.866;-4.222;2024-01-07T09:36:07;102156.00;;;19.30
44429;BMP180;30134;47.866;-4.222;2024-01-07T09:38:33;102159.00;;;19.40
44429;BMP180;30134;47.866;-4.222;2024-01-07T09:40:59;102161.00;;;19.40
44429;BMP180;30134;47.866;-4.222;2024-01-07T09:43:25;102163.00;;;19.40
44429;BMP180;30134;47.866;-4.222;2024-01-07T09:45:51;102172.00;;;19.40
44429;BMP180;30134;47.866;-4.222;2024-01-07T09:48:19;102175.00;;;19.40
44429;BMP180;30134;47.866;-4.222;2024-01-07T09:50:45;102167.00;;;19.40
44429;BMP180;30134;47.866;-4.222;2024-01-07T09:53:15;102168.00;;;19.40
44429;BMP180;30134;47.866;-4.222;2024-01-07T09:56:19;102180.00;;;19.40
44429;BMP180;30134;47.866;-4.222;2024-01-07T09:58:46;102175.00;;;19.40
44429;BMP180;30134;47.866;-4.222;2024-01-07T10:01:18;102172.00;;;19.40
44429;BMP180;30134;47.866;-4.222;2024-01-07T10:03:44;102177.00;;;19.40
44429;BMP180;30134;47.866;-4.222;2024-01-07T10:06:11;102170.00;;;19.40
44429;BMP180;30134;47.866;-4.222;2024-01-07T10:08:39;102177.00;;;19.40
44429;BMP180;30134;47.866;-4.222;2024-01-07T10:11:05;102184.00;;;19.40
44429;BMP180;30134;47.866;-4.222;2024-01-07T10:13:31;102181.00;;;19.40
44429;BMP180;30134;47.866;-4.222;2024-01-07T10:15:58;102181.00;;;19.40
44429;BMP180;30134;47.866;-4.222;2024-01-07T10:18:25;102188.00;;;19.40
44429;BMP180;30134;47.866;-4.222;2024-01-07T10:20:53;102186.00;;;19.40
44429;BMP180;30134;47.866;-4.222;2024-01-07T10:23:20;102192.00;;;19.40
44429;BMP180;30134;47.866;-4.222;2024-01-07T10:25:46;102195.00;;;19.40
44429;BMP180;30134;47.866;-4.222;2024-01-07T10:28:13;102191.00;;;19.40
44429;BMP180;30134;47.866;-4.222;2024-01-07T10:30:40;102189.00;;;19.40
44429;BMP180;30134;47.866;-4.222;2024-01-07T10:33:07;102196.00;;;19.30
44429;BMP180;30134;47.866;-4.222;2024-01-07T10:35:35;102198.00;;;19.40
44429;BMP180;30134;47.866;-4.222;2024-01-07T10:38:02;102200.00;;;19.30
44429;BMP180;30134;47.866;-4.222;2024-01-07T10:40:31;102199.00;;;19.30
44429;BMP180;30134;47.866;-4.222;2024-01-07T10:43:00;102203.00;;;19.30
44429;BMP180;30134;47.866;-4.222;2024-01-07T10:45:27;102198.00;;;19.30
44429;BMP180;30134;47.866;-4.222;2024-01-07T10:47:55;102197.00;;;19.30
44429;BMP180;30134;47.866;-4.222;2024-01-07T10:50:23;102195.00;;;19.30
44429;BMP180;30134;47.866;-4.222;2024-01-07T10:53:03;102196.00;;;19.40
44429;BMP180;30134;47.866;-4.222;2024-01-07T10:55:34;102200.00;;;19.30
44429;BMP180;30134;47.866;-4.222;2024-01-07T10:58:04;102193.00;;;19.40
44429;BMP180;30134;47.866;-4.222;2024-01-07T11:00:30;102197.00;;;19.30
44429;BMP180;30134;47.866;-4.222;2024-01-07T11:12:11;102185.00;;;19.30
44429;BMP180;30134;47.866;-4.222;2024-01-07T11:14:43;102182.00;;;19.30
44429;BMP180;30134;47.866;-4.222;2024-01-07T11:17:40;102179.00;;;19.30
44429;BMP180;30134;47.866;-4.222;2024-01-07T11:20:21;102177.00;;;19.30
44429;BMP180;30134;47.866;-4.222;2024-01-07T11:22:48;102168.00;;;19.30
44429;BMP180;30134;47.866;-4.222;2024-01-07T11:25:33;102169.00;;;19.30
44429;BMP180;30134;47.866;-4.222;2024-01-07T11:28:03;102169.00;;;19.40
44429;BMP180;30134;47.866;-4.222;2024-01-07T11:30:29;102171.00;;;19.30
44429;BMP180;30134;47.866;-4.222;2024-01-07T11:33:06;102167.00;;;19.30
44429;BMP180;30134;47.866;-4.222;2024-01-07T11:35:53;102181.00;;;19.40
44429;BMP180;30134;47.866;-4.222;2024-01-07T11:38:19;102168.00;;;19.40
44429;BMP180;30134;47.866;-4.222;2024-01-07T11:40:47;102173.00;;;19.40
44429;BMP180;30134;47.866;-4.222;2024-01-07T11:43:14;102170.00;;;19.40
44429;BMP180;30134;47.866;-4.222;2024-01-07T11:45:40;102171.00;;;19.40
44429;BMP180;30134;47.866;-4.222;2024-01-07T11:48:07;102170.00;;;19.30
44429;BMP180;30134;47.866;-4.222;2024-01-07T11:50:35;102163.00;;;19.40
44429;BMP180;30134;47.866;-4.222;2024-01-07T11:53:02;102167.00;;;19.30
44429;BMP180;30134;47.866;-4.222;2024-01-07T11:55:29;102169.00;;;19.30
44429;BMP180;30134;47.866;-4.222;2024-01-07T11:58:03;102161.00;;;19.30
44429;BMP180;30134;47.866;-4.222;2024-01-07T12:00:33;102162.00;;;19.40
44429;BMP180;30134;47.866;-4.222;2024-01-07T12:03:00;102157.00;;;19.40
44429;BMP180;30134;47.866;-4.222;2024-01-07T12:05:28;102159.00;;;19.40
44429;BMP180;30134;47.866;-4.222;2024-01-07T12:07:54;102156.00;;;19.40
44429;BMP180;30134;47.866;-4.222;2024-01-07T12:10:21;102159.00;;;19.40
44429;BMP180;30134;47.866;-4.222;2024-01-07T12:12:47;102153.00;;;19.40
44429;BMP180;30134;47.866;-4.222;2024-01-07T12:15:14;102162.00;;;19.40
44429;BMP180;30134;47.866;-4.222;2024-01-07T12:17:41;102161.00;;;19.40
44429;BMP180;30134;47.866;-4.222;2024-01-07T12:20:08;102153.00;;;19.40
44429;BMP180;30134;47.866;-4.222;2024-01-07T12:22:40;102153.00;;;19.40
44429;BMP180;30134;47.866;-4.222;2024-01-07T12:25:07;102148.00;;;19.40
44429;BMP180;30134;47.866;-4.222;2024-01-07T12:27:34;102145.00;;;19.40
44429;BMP180;30134;47.866;-4.222;2024-01-07T12:30:05;102146.00;;;19.40
44429;BMP180;30134;47.866;-4.222;2024-01-07T12:32:31;102148.00;;;19.40
44429;BMP180;30134;47.866;-4.222;2024-01-07T12:35:01;102151.00;;;19.50
44429;BMP180;30134;47.866;-4.222;2024-01-07T12:37:28;102143.00;;;19.50
44429;BMP180;30134;47.866;-4.222;2024-01-07T12:39:54;102135.00;;;19.50
44429;BMP180;30134;47.866;-4.222;2024-01-07T12:42:20;102135.00;;;19.40
44429;BMP180;30134;47.866;-4.222;2024-01-07T12:44:51;102135.00;;;19.40
44429;BMP180;30134;47.866;-4.222;2024-01-07T12:47:17;102133.00;;;19.40
44429;BMP180;30134;47.866;-4.222;2024-01-07T12:49:43;102131.00;;;19.40
44429;BMP180;30134;47.866;-4.222;2024-01-07T12:52:09;102129.00;;;19.40
44429;BMP180;30134;47.866;-4.222;2024-01-07T12:54:35;102126.00;;;19.40
44429;BMP180;30134;47.866;-4.222;2024-01-07T12:57:01;102126.00;;;19.40
44429;BMP180;30134;47.866;-4.222;2024-01-07T12:59:29;102131.00;;;19.40
44429;BMP180;30134;47.866;-4.222;2024-01-07T13:01:56;102126.00;;;19.40
44429;BMP180;30134;47.866;-4.222;2024-01-07T13:04:24;102117.00;;;19.40
44429;BMP180;30134;47.866;-4.222;2024-01-07T13:06:50;102122.00;;;19.40
44429;BMP180;30134;47.866;-4.222;2024-01-07T13:09:16;102115.00;;;19.40
44429;BMP180;30134;47.866;-4.222;2024-01-07T13:11:42;102113.00;;;19.50
44429;BMP180;30134;47.866;-4.222;2024-01-07T13:14:08;102105.00;;;19.40
44429;BMP180;30134;47.866;-4.222;2024-01-07T13:16:34;102102.00;;;19.40
44429;BMP180;30134;47.866;-4.222;2024-01-07T13:19:00;102097.00;;;19.40
44429;BMP180;30134;47.866;-4.222;2024-01-07T13:21:26;102108.00;;;19.40
44429;BMP180;30134;47.866;-4.222;2024-01-07T13:23:52;102105.00;;;19.50
44429;BMP180;30134;47.866;-4.222;2024-01-07T13:26:18;102102.00;;;19.40
44429;BMP180;30134;47.866;-4.222;2024-01-07T13:28:44;102112.00;;;19.40
44429;BMP180;30134;47.866;-4.222;2024-01-07T13:31:10;102102.00;;;19.40
44429;BMP180;30134;47.866;-4.222;2024-01-07T13:33:38;102104.00;;;19.60
44429;BMP180;30134;47.866;-4.222;2024-01-07T13:36:05;102101.00;;;19.50
44429;BMP180;30134;47.866;-4.222;2024-01-07T13:38:36;102099.00;;;19.50
44429;BMP180;30134;47.866;-4.222;2024-01-07T13:41:04;102099.00;;;19.50
44429;BMP180;30134;47.866;-4.222;2024-01-07T13:43:30;102091.00;;;19.50
44429;BMP180;30134;47.866;-4.222;2024-01-07T13:45:56;102089.00;;;19.40
44429;BMP180;30134;47.866;-4.222;2024-01-07T13:48:22;102094.00;;;19.50
44429;BMP180;30134;47.866;-4.222;2024-01-07T13:50:51;102090.00;;;19.50